Time;durP1;ratioP1;P1;durP2;ratioP2;P2;SDS_P1;SDS_P2;PMS_P1;PMS_P2;Temp;Humidity;BMP_temperature;BMP_pressure;BME280_temperature;BME280_humidity;BME280_pressure;Samples;Min_cycle;Max_cycle;Signal;HPM_P1;HPM_P2
2021/03/02 00:01:43;;;;;;;41.27;20.17;;;0.90;86.20;;;;;;5090857;28;20028;-63
2021/03/02 00:04:09;;;;;;;42.43;20.10;;;0.90;86.20;;;;;;5091835;28;20044;-62
2021/03/02 00:06:35;;;;;;;38.37;20.30;;;0.80;86.20;;;;;;5072934;28;20549;-62
2021/03/02 00:09:01;;;;;;;39.63;20.10;;;0.80;86.30;;;;;;5073799;28;20036;-62
2021/03/02 00:11:27;;;;;;;45.37;21.97;;;0.80;86.40;;;;;;5091106;28;20090;-66
2021/03/02 00:13:53;;;;;;;41.50;21.70;;;0.80;86.40;;;;;;5039663;28;20089;-67
2021/03/02 00:16:25;;;;;;;42.53;23.07;;;0.70;86.40;;;;;;5091653;28;20461;-67
2021/03/02 00:19:05;;;;;;;40.67;19.87;;;0.80;86.60;;;;;;5072492;28;20162;-67
2021/03/02 00:21:35;;;;;;;38.83;19.90;;;0.70;86.40;;;;;;5090813;28;20063;-66
2021/03/02 00:24:09;;;;;;;39.55;21.40;;;0.70;86.40;;;;;;5091095;28;20395;-66
2021/03/02 00:26:37;;;;;;;40.17;21.47;;;0.70;86.60;;;;;;5073152;28;20073;-62
2021/03/02 00:29:04;;;;;;;43.87;21.43;;;0.70;86.60;;;;;;5091148;28;20039;-63
2021/03/02 00:31:34;;;;;;;42.73;22.07;;;0.70;86.60;;;;;;5091139;28;20123;-62
2021/03/02 00:34:00;;;;;;;43.30;22.88;;;0.60;86.70;;;;;;5056224;28;20150;-63
2021/03/02 00:36:26;;;;;;;38.90;20.37;;;0.70;86.80;;;;;;5073360;28;20497;-62
2021/03/02 00:38:51;;;;;;;43.13;21.03;;;0.60;86.90;;;;;;5091494;28;20598;-62
2021/03/02 00:41:18;;;;;;;40.77;21.47;;;0.60;86.90;;;;;;5072446;28;20056;-62
2021/03/02 00:43:43;;;;;;;44.80;22.93;;;0.60;86.90;;;;;;5091468;28;20032;-63
2021/03/02 00:46:09;;;;;;;44.63;22.10;;;0.50;86.90;;;;;;5073135;28;20040;-64
2021/03/02 00:48:35;;;;;;;41.77;22.57;;;0.60;87.20;;;;;;5090771;28;20043;-62
2021/03/02 00:51:03;;;;;;;46.60;22.80;;;0.60;87.40;;;;;;5055945;28;20081;-62
2021/03/02 00:53:28;;;;;;;41.53;20.73;;;0.60;87.40;;;;;;5090760;28;20492;-62
2021/03/02 00:55:54;;;;;;;50.17;22.67;;;0.60;87.30;;;;;;5056226;28;20046;-62
2021/03/02 00:58:20;;;;;;;44.60;23.03;;;0.60;87.30;;;;;;5073599;28;20032;-62
2021/03/02 01:00:48;;;;;;;48.90;23.33;;;0.50;87.20;;;;;;5055180;28;20036;-62
2021/03/02 01:03:14;;;;;;;47.00;23.37;;;0.50;87.20;;;;;;5091473;28;20572;-62
2021/03/02 01:05:41;;;;;;;44.13;22.03;;;0.50;87.20;;;;;;5072848;28;20039;-63
2021/03/02 01:08:12;;;;;;;44.00;22.57;;;0.40;87.20;;;;;;5073082;28;20044;-62
2021/03/02 01:10:40;;;;;;;49.23;22.67;;;0.50;87.50;;;;;;5072086;28;20565;-63
2021/03/02 01:13:07;;;;;;;48.33;23.93;;;0.50;87.40;;;;;;5072807;28;20118;-62
2021/03/02 01:15:32;;;;;;;51.47;24.63;;;0.50;87.40;;;;;;5072804;28;20119;-62
2021/03/02 01:17:58;;;;;;;42.40;22.87;;;0.40;87.70;;;;;;5072253;28;20032;-62
2021/03/02 01:20:24;;;;;;;44.30;22.17;;;0.40;87.70;;;;;;5090283;28;20400;-62
2021/03/02 01:22:49;;;;;;;43.40;22.47;;;0.40;87.50;;;;;;5090750;28;20062;-62
2021/03/02 01:25:16;;;;;;;41.87;22.83;;;0.40;87.60;;;;;;5072129;28;20120;-62
2021/03/02 01:27:41;;;;;;;45.10;23.77;;;0.40;87.80;;;;;;5090761;28;20143;-62
2021/03/02 01:30:12;;;;;;;50.50;24.13;;;0.40;87.90;;;;;;5089584;28;20544;-62
2021/03/02 01:32:38;;;;;;;;;;;0.40;87.90;;;;;;5073199;28;20522;-62
2021/03/02 01:35:07;;;;;;;43.57;22.37;;;0.40;87.90;;;;;;5055922;28;19916;-62
2021/03/02 01:37:33;;;;;;;44.43;23.60;;;0.40;87.90;;;;;;5090123;28;20381;-62
2021/03/02 01:39:58;;;;;;;41.27;22.17;;;0.30;88.00;;;;;;5072413;28;20039;-62
2021/03/02 01:42:24;;;;;;;48.30;23.40;;;0.30;88.10;;;;;;5089980;28;20569;-62
2021/03/02 01:44:50;;;;;;;45.10;23.17;;;0.30;88.10;;;;;;5068982;28;20047;-61
2021/03/02 01:47:15;;;;;;;45.47;23.27;;;0.30;88.10;;;;;;5090382;28;20033;-62
2021/03/02 01:49:41;;;;;;;44.57;23.47;;;0.30;88.10;;;;;;5090063;28;20043;-62
2021/03/02 01:52:07;;;;;;;45.53;23.53;;;0.30;88.30;;;;;;5090540;28;20082;-62
2021/03/02 01:54:35;;;;;;;48.80;23.93;;;0.30;88.60;;;;;;5072697;28;20515;-62
2021/03/02 01:57:00;;;;;;;51.67;24.87;;;0.30;88.30;;;;;;5090550;28;20040;-62
2021/03/02 01:59:26;;;;;;;52.10;26.63;;;0.30;88.30;;;;;;5092645;28;20044;-62
2021/03/02 02:01:53;;;;;;;50.33;25.60;;;0.20;88.40;;;;;;5094774;28;20040;-72
2021/03/02 02:04:47;;;;;;;52.73;24.63;;;0.20;88.50;;;;;;5077806;28;20229;-64
2021/03/02 02:07:18;;;;;;;49.73;24.30;;;0.20;88.70;;;;;;5087580;28;20044;-62
2021/03/02 02:10:02;;;;;;;47.08;24.33;;;0.20;88.70;;;;;;5093524;28;20494;-68
2021/03/02 02:12:42;;;;;;;51.37;24.30;;;0.20;88.60;;;;;;5077143;28;20056;-62
2021/03/02 02:15:10;;;;;;;54.43;26.03;;;0.30;88.60;;;;;;5064064;28;20384;-63
2021/03/02 02:18:00;;;;;;;48.20;23.83;;;0.20;88.50;;;;;;5079775;28;20052;-62
2021/03/02 02:20:45;;;;;;;47.03;23.43;;;0.20;89.00;;;;;;5094506;28;20040;-62
2021/03/02 02:23:31;;;;;;;49.43;25.33;;;0.20;88.60;;;;;;5094490;28;20317;-62
2021/03/02 02:26:08;;;;;;;51.33;25.23;;;0.10;88.70;;;;;;5074334;28;20035;-63
2021/03/02 02:28:35;;;;;;;50.03;25.23;;;0.10;88.80;;;;;;5093751;28;20036;-65
2021/03/02 02:31:02;;;;;;;51.50;24.97;;;0.20;88.80;;;;;;5089927;28;20044;-61
2021/03/02 02:33:34;;;;;;;48.53;24.60;;;0.10;88.80;;;;;;5094954;28;20047;-61
2021/03/02 02:36:01;;;;;;;48.50;24.73;;;0.10;88.80;;;;;;5076688;28;20040;-63
2021/03/02 02:38:28;;;;;;;44.77;24.57;;;0.10;88.90;;;;;;5075049;28;20116;-61
2021/03/02 02:40:55;;;;;;;48.67;24.60;;;0.10;89.10;;;;;;5118900;22;20036;-61
2021/03/02 02:43:21;;;;;;;50.00;24.47;;;0.10;89.00;;;;;;5055519;28;20125;-61
2021/03/02 02:45:49;;;;;;;51.10;25.50;;;0.10;89.00;;;;;;5055708;28;20052;-61
2021/03/02 02:48:17;;;;;;;52.80;26.10;;;0.10;89.00;;;;;;5072872;28;20048;-61
2021/03/02 02:50:46;;;;;;;50.07;26.70;;;0.00;89.10;;;;;;5046179;28;20081;-63
2021/03/02 02:53:12;;;;;;;47.43;23.87;;;0.00;89.30;;;;;;5057710;28;20559;-63
2021/03/02 02:55:47;;;;;;;52.17;25.63;;;0.00;89.30;;;;;;5074924;28;20047;-63
2021/03/02 02:58:17;;;;;;;55.77;26.13;;;0.00;89.30;;;;;;5092944;28;20598;-63
2021/03/02 03:00:45;;;;;;;55.95;26.92;;;0.00;89.40;;;;;;5074146;28;20086;-61
2021/03/02 03:03:14;;;;;;;54.93;26.17;;;0.00;89.40;;;;;;5058406;28;20127;-61
2021/03/02 03:05:44;;;;;;;49.70;25.17;;;0.00;89.40;;;;;;5074897;28;20036;-61
2021/03/02 03:08:17;;;;;;;48.10;25.33;;;-0.10;89.30;;;;;;5093105;28;20545;-61
2021/03/02 03:10:45;;;;;;;53.40;25.67;;;-0.10;89.40;;;;;;5092558;28;20062;-61
2021/03/02 03:13:16;;;;;;;55.07;26.47;;;-0.10;89.30;;;;;;5058513;28;20132;-61
2021/03/02 03:15:48;;;;;;;58.80;26.42;;;-0.10;89.40;;;;;;5092821;28;20389;-61
2021/03/02 03:18:17;;;;;;;48.97;24.13;;;-0.10;89.50;;;;;;5075574;28;20040;-71
2021/03/02 03:20:43;;;;;;;53.90;25.20;;;-0.20;89.60;;;;;;5074567;28;20044;-71
2021/03/02 03:23:09;;;;;;;49.73;24.70;;;-0.10;89.60;;;;;;5058192;28;20051;-71
2021/03/02 03:25:35;;;;;;;51.73;25.93;;;-0.20;89.60;;;;;;5092302;28;20044;-73
2021/03/02 03:28:04;;;;;;;53.73;26.43;;;-0.20;89.70;;;;;;5074558;28;20071;-73
2021/03/02 03:30:33;;;;;;;45.87;24.80;;;-0.20;89.80;;;;;;5092752;28;20036;-71
2021/03/02 03:33:02;;;;;;;51.67;25.97;;;-0.20;89.90;;;;;;5074404;28;20039;-70
2021/03/02 03:35:28;;;;;;;53.53;26.47;;;-0.20;89.80;;;;;;5074668;28;20040;-71
2021/03/02 03:37:54;;;;;;;51.53;24.63;;;-0.20;89.90;;;;;;5074781;28;20084;-71
2021/03/02 03:40:20;;;;;;;51.57;25.07;;;-0.20;89.80;;;;;;5073910;28;20047;-71
2021/03/02 03:42:46;;;;;;;50.10;24.27;;;-0.20;89.90;;;;;;5092728;28;20036;-71
2021/03/02 03:45:12;;;;;;;54.97;25.53;;;-0.20;90.00;;;;;;5040858;28;20166;-62
2021/03/02 03:47:38;;;;;;;47.53;24.60;;;-0.20;90.00;;;;;;5092489;28;20040;-61
2021/03/02 03:50:05;;;;;;;48.40;25.43;;;-0.20;90.10;;;;;;5092321;28;20048;-61
2021/03/02 03:52:33;;;;;;;47.67;25.27;;;-0.20;90.10;;;;;;5073792;28;20036;-61
2021/03/02 03:55:00;;;;;;;48.60;24.37;;;-0.20;90.10;;;;;;5074529;28;20036;-61
2021/03/02 03:57:27;;;;;;;49.27;26.27;;;-0.20;90.20;;;;;;5073618;28;20109;-65
2021/03/02 03:59:54;;;;;;;40.27;22.17;;;-0.20;90.40;;;;;;5074285;28;20063;-61
2021/03/02 04:02:21;;;;;;;52.97;25.03;;;-0.20;90.40;;;;;;5074752;28;20043;-62
2021/03/02 04:04:47;;;;;;;48.73;24.30;;;-0.10;90.50;;;;;;5057192;28;20036;-61
2021/03/02 04:07:14;;;;;;;49.37;23.47;;;-0.10;90.40;;;;;;5057299;28;20058;-61
2021/03/02 04:09:41;;;;;;;46.40;22.90;;;0.00;90.50;;;;;;5057315;28;20518;-62
2021/03/02 04:12:10;;;;;;;51.27;24.27;;;0.00;90.50;;;;;;5092011;28;20581;-62
2021/03/02 04:14:36;;;;;;;49.33;23.60;;;0.10;90.50;;;;;;5079195;28;20124;-68
2021/03/02 04:17:02;;;;;;;47.73;23.90;;;0.10;90.60;;;;;;5093823;28;20123;-61
2021/03/02 04:19:28;;;;;;;53.73;23.90;;;0.10;90.50;;;;;;5074120;28;20420;-62
2021/03/02 04:21:54;;;;;;;61.67;26.47;;;0.20;90.50;;;;;;5073068;28;20039;-61
2021/03/02 04:24:20;;;;;;;61.90;27.10;;;0.20;90.40;;;;;;5057259;28;20112;-61
2021/03/02 04:26:46;;;;;;;63.23;25.10;;;0.20;90.40;;;;;;5057126;28;20047;-62
2021/03/02 04:29:12;;;;;;;68.80;26.73;;;0.10;90.40;;;;;;5073204;28;20036;-63
2021/03/02 04:31:37;;;;;;;66.63;27.10;;;0.10;90.50;;;;;;5073294;28;20058;-62
2021/03/02 04:34:03;;;;;;;65.10;27.23;;;0.20;90.60;;;;;;5056842;28;20032;-62
2021/03/02 04:36:29;;;;;;;72.10;27.73;;;0.20;90.60;;;;;;5073582;28;20537;-61
2021/03/02 04:38:54;;;;;;;63.97;25.23;;;0.20;90.50;;;;;;5056944;28;20040;-61
2021/03/02 04:41:20;;;;;;;72.37;27.90;;;0.10;90.80;;;;;;5072736;28;20036;-62
2021/03/02 04:43:46;;;;;;;71.53;26.80;;;0.10;90.60;;;;;;5091706;28;20034;-62
2021/03/02 04:46:11;;;;;;;106.07;32.63;;;0.10;90.70;;;;;;5073522;28;20093;-62
2021/03/02 04:48:37;;;;;;;66.80;27.00;;;0.10;90.80;;;;;;5091114;28;20079;-62
2021/03/02 04:51:03;;;;;;;92.53;30.93;;;0.10;90.80;;;;;;5056602;28;20555;-61
2021/03/02 04:53:29;;;;;;;94.40;30.07;;;0.10;90.70;;;;;;5072932;28;20047;-63
2021/03/02 04:55:55;;;;;;;91.00;31.47;;;0.20;90.80;;;;;;5073355;28;20036;-67
2021/03/02 04:58:20;;;;;;;96.27;29.83;;;0.20;90.70;;;;;;5056651;28;20035;-67
2021/03/02 05:00:46;;;;;;;90.60;30.07;;;0.20;91.00;;;;;;5090386;28;20459;-67
2021/03/02 05:03:12;;;;;;;85.50;29.23;;;0.20;90.80;;;;;;5073256;28;20079;-67
2021/03/02 05:05:37;;;;;;;101.67;28.03;;;0.20;90.90;;;;;;5072810;28;20541;-68
2021/03/02 05:08:04;;;;;;;92.33;28.60;;;0.20;90.90;;;;;;5056486;28;20507;-67
2021/03/02 05:10:29;;;;;;;127.23;29.70;;;0.20;91.00;;;;;;5072967;28;20032;-67
2021/03/02 05:12:55;;;;;;;131.07;31.37;;;0.30;91.00;;;;;;5072319;28;20047;-67
2021/03/02 05:15:21;;;;;;;151.90;29.53;;;0.30;90.90;;;;;;5040050;28;20038;-67
2021/03/02 05:17:46;;;;;;;138.73;27.30;;;0.30;91.00;;;;;;5073243;28;20040;-68
2021/03/02 05:20:13;;;;;;;105.70;26.73;;;0.30;90.90;;;;;;5072416;28;20040;-67
2021/03/02 05:22:38;;;;;;;118.63;23.03;;;0.40;91.00;;;;;;5090967;28;20032;-67
2021/03/02 05:25:05;;;;;;;182.57;27.10;;;0.40;91.00;;;;;;5090590;28;20043;-67
2021/03/02 05:27:30;;;;;;;94.97;25.63;;;0.40;90.90;;;;;;5073036;28;20040;-68
2021/03/02 05:29:56;;;;;;;124.87;26.87;;;0.30;90.80;;;;;;5072975;28;20040;-67
2021/03/02 05:32:22;;;;;;;104.53;26.03;;;0.40;90.90;;;;;;5072330;28;20036;-68
2021/03/02 05:34:48;;;;;;;83.70;27.17;;;0.40;90.90;;;;;;5056180;28;20032;-67
2021/03/02 05:37:13;;;;;;;108.80;26.70;;;0.30;90.90;;;;;;5090519;28;20032;-67
2021/03/02 05:39:39;;;;;;;160.80;27.67;;;0.40;90.90;;;;;;5072832;28;20028;-67
2021/03/02 05:42:06;;;;;;;103.07;24.97;;;0.40;91.00;;;;;;5055807;28;20127;-68
2021/03/02 05:44:33;;;;;;;167.63;26.70;;;0.40;90.90;;;;;;5090265;28;20541;-69
2021/03/02 05:46:59;;;;;;;93.77;24.00;;;0.40;91.00;;;;;;5073160;28;20046;-67
2021/03/02 05:49:25;;;;;;;164.67;26.97;;;0.40;90.90;;;;;;5076926;28;20086;-67
2021/03/02 05:51:51;;;;;;;116.40;25.83;;;0.40;90.80;;;;;;5076163;28;20373;-67
2021/03/02 05:54:17;;;;;;;75.13;22.00;;;0.40;90.80;;;;;;5076748;28;20039;-67
2021/03/02 05:56:43;;;;;;;201.20;25.47;;;0.30;90.80;;;;;;5094223;28;20047;-67
2021/03/02 05:59:09;;;;;;;101.80;25.00;;;0.30;90.80;;;;;;5094994;28;20040;-67
2021/03/02 06:01:35;;;;;;;66.30;24.93;;;0.30;90.90;;;;;;5094408;28;20557;-68
2021/03/02 06:04:02;;;;;;;89.17;27.00;;;0.30;90.90;;;;;;5094063;28;20051;-67
2021/03/02 06:06:28;;;;;;;171.67;28.70;;;0.30;91.00;;;;;;5094552;28;20032;-69
2021/03/02 06:08:55;;;;;;;84.27;23.00;;;0.30;91.00;;;;;;5094568;28;20032;-68
2021/03/02 06:11:35;;;;;;;130.73;23.80;;;0.30;91.00;;;;;;5075617;28;20024;-67
2021/03/02 06:14:24;;;;;;;145.32;22.60;;;0.30;91.00;;;;;;5059369;28;20028;-67
2021/03/02 06:16:51;;;;;;;158.90;25.13;;;0.30;90.70;;;;;;5076416;28;20089;-72
2021/03/02 06:19:18;;;;;;;137.43;23.67;;;0.30;90.80;;;;;;5094026;28;20159;-72
2021/03/02 06:21:45;;;;;;;192.77;25.63;;;0.20;90.90;;;;;;5075793;28;20043;-71
2021/03/02 06:24:11;;;;;;;112.30;23.83;;;0.20;91.00;;;;;;5076008;28;20037;-72
2021/03/02 06:26:40;;;;;;;81.67;23.03;;;0.20;91.10;;;;;;5094343;28;20028;-67
2021/03/02 06:29:13;;;;;;;85.33;22.93;;;0.20;91.10;;;;;;5076253;28;20051;-67
2021/03/02 06:31:45;;;;;;;83.73;22.07;;;0.30;91.00;;;;;;5093401;28;20024;-72
2021/03/02 06:34:14;;;;;;;93.80;22.60;;;0.30;91.20;;;;;;5059519;28;20407;-72
2021/03/02 06:37:01;;;;;;;78.27;23.33;;;0.30;91.20;;;;;;5094122;28;20060;-72
2021/03/02 06:39:31;;;;;;;76.33;22.27;;;0.40;91.50;;;;;;5076527;28;20507;-72
2021/03/02 06:42:23;;;;;;;58.70;20.57;;;0.50;91.50;;;;;;5078122;28;20391;-74
2021/03/02 06:44:50;;;;;;;77.03;19.20;;;0.60;91.50;;;;;;5097919;28;20582;-72
2021/03/02 06:47:36;;;;;;;80.70;18.73;;;0.70;91.50;;;;;;5097673;28;20170;-72
2021/03/02 06:50:22;;;;;;;82.43;20.47;;;0.70;91.40;;;;;;5095686;28;20036;-72
2021/03/02 06:52:48;;;;;;;81.13;19.97;;;0.80;91.20;;;;;;5077892;28;20055;-73
2021/03/02 06:55:17;;;;;;;84.67;19.10;;;0.80;91.40;;;;;;5042454;28;21368;-61
2021/03/02 06:57:43;;;;;;;62.83;18.83;;;0.90;91.60;;;;;;5075752;28;20051;-62
2021/03/02 07:00:10;;;;;;;72.57;18.63;;;1.10;91.70;;;;;;5073591;28;20040;-62
2021/03/02 07:02:40;;;;;;;42.53;18.57;;;1.20;91.80;;;;;;5093796;28;20055;-62
2021/03/02 07:05:07;;;;;;;50.60;19.08;;;1.30;91.60;;;;;;5074786;28;20396;-65
2021/03/02 07:07:33;;;;;;;48.40;17.27;;;1.40;91.70;;;;;;5058612;28;20036;-62
2021/03/02 07:10:00;;;;;;;41.33;17.63;;;1.60;91.60;;;;;;5093348;28;20116;-62
2021/03/02 07:12:32;;;;;;;56.37;17.93;;;1.70;91.60;;;;;;5058028;28;20480;-62
2021/03/02 07:15:00;;;;;;;53.77;17.23;;;1.80;91.70;;;;;;5058933;28;20435;-61
2021/03/02 07:17:27;;;;;;;72.30;16.80;;;1.90;91.80;;;;;;5092847;28;20492;-61
2021/03/02 07:19:53;;;;;;;66.63;16.17;;;2.10;91.70;;;;;;5093039;28;20111;-61
2021/03/02 07:22:20;;;;;;;115.60;17.00;;;2.20;91.40;;;;;;5074943;28;20039;-62
2021/03/02 07:24:47;;;;;;;58.80;15.47;;;2.30;91.20;;;;;;5074717;28;20031;-62
2021/03/02 07:27:13;;;;;;;87.33;15.40;;;2.30;91.00;;;;;;5074880;28;20032;-62
2021/03/02 07:29:39;;;;;;;115.13;17.50;;;2.40;91.00;;;;;;5092411;28;20119;-62
2021/03/02 07:32:09;;;;;;;50.90;16.80;;;2.40;90.80;;;;;;5092845;28;20119;-62
2021/03/02 07:34:35;;;;;;;59.03;15.87;;;2.50;90.90;;;;;;5074554;28;20040;-64
2021/03/02 07:37:01;;;;;;;53.90;15.90;;;2.60;91.10;;;;;;5092942;28;20043;-62
2021/03/02 07:39:27;;;;;;;51.87;15.10;;;2.80;91.20;;;;;;5075170;28;20036;-62
2021/03/02 07:41:54;;;;;;;43.70;15.30;;;2.90;91.50;;;;;;5074867;28;20091;-62
2021/03/02 07:44:20;;;;;;;48.57;15.57;;;3.10;91.40;;;;;;5075597;28;20048;-62
2021/03/02 07:46:49;;;;;;;40.37;14.20;;;3.20;91.50;;;;;;5093206;28;20081;-64
2021/03/02 07:49:24;;;;;;;42.77;15.13;;;3.40;91.50;;;;;;5092986;28;20032;-61
2021/03/02 07:52:02;;;;;;;30.40;15.57;;;3.60;91.40;;;;;;5092599;28;20392;-61
2021/03/02 07:54:29;;;;;;;30.80;14.17;;;3.90;91.60;;;;;;5092732;28;20113;-62
2021/03/02 07:57:16;;;;;;;23.83;14.07;;;4.20;91.70;;;;;;5092830;28;20059;-62
2021/03/02 07:59:43;;;;;;;23.67;13.40;;;4.50;91.80;;;;;;5074664;28;20063;-62
2021/03/02 08:02:21;;;;;;;23.83;13.53;;;4.70;91.50;;;;;;5092387;28;20109;-62
2021/03/02 08:04:51;;;;;;;23.47;13.23;;;4.90;91.10;;;;;;5087240;28;20052;-62
2021/03/02 08:07:24;;;;;;;22.60;13.37;;;5.00;91.00;;;;;;5099549;28;20441;-62
2021/03/02 08:09:52;;;;;;;22.13;13.10;;;5.20;91.20;;;;;;5099941;28;20039;-63
2021/03/02 08:12:28;;;;;;;69.20;16.03;;;5.20;90.80;;;;;;5079675;28;20047;-63
2021/03/02 08:14:55;;;;;;;39.67;15.70;;;5.30;91.00;;;;;;5095767;28;20040;-61
2021/03/02 08:17:22;;;;;;;41.10;16.07;;;5.40;90.40;;;;;;5078025;28;20066;-61
2021/03/02 08:19:51;;;;;;;27.57;15.07;;;5.50;90.20;;;;;;5095073;28;20043;-64
2021/03/02 08:22:19;;;;;;;33.40;16.60;;;5.60;90.70;;;;;;5074022;28;20070;-63
2021/03/02 08:24:52;;;;;;;27.23;14.97;;;5.80;90.50;;;;;;5076201;28;20032;-64
2021/03/02 08:27:42;;;;;;;30.50;16.10;;;6.00;90.80;;;;;;5101168;28;20069;-62
2021/03/02 08:30:13;;;;;;;26.80;15.95;;;6.20;90.30;;;;;;5076987;28;20084;-63
2021/03/02 08:32:41;;;;;;;27.40;16.25;;;6.40;90.20;;;;;;5101290;28;20036;-64
2021/03/02 08:35:12;;;;;;;26.33;15.93;;;6.50;90.30;;;;;;5064277;28;20024;-64
2021/03/02 08:37:42;;;;;;;28.67;16.63;;;6.80;90.30;;;;;;5080045;28;20061;-64
2021/03/02 08:40:10;;;;;;;25.73;14.82;;;7.10;90.30;;;;;;5087979;22;20065;-64
2021/03/02 08:42:37;;;;;;;25.00;15.90;;;7.40;90.20;;;;;;5073572;28;20054;-66
2021/03/02 08:45:08;;;;;;;28.20;16.13;;;7.80;90.10;;;;;;5075972;28;20407;-64
2021/03/02 08:47:35;;;;;;;28.37;17.10;;;8.10;88.30;;;;;;5052712;28;20036;-65
2021/03/02 08:50:04;;;;;;;27.63;16.17;;;8.30;87.70;;;;;;5076465;28;20484;-62
2021/03/02 08:52:40;;;;;;;28.27;17.00;;;8.40;86.80;;;;;;5053130;28;20037;-62
2021/03/02 08:55:07;;;;;;;27.93;17.30;;;8.50;84.30;;;;;;5074548;28;20495;-62
2021/03/02 08:57:45;;;;;;;29.70;16.90;;;8.30;83.80;;;;;;5051762;28;20044;-62
2021/03/02 09:00:15;;;;;;;32.77;17.33;;;8.30;83.60;;;;;;5051876;28;20508;-67
2021/03/02 09:02:43;;;;;;;29.33;16.27;;;8.60;84.30;;;;;;5068893;28;20040;-67
2021/03/02 09:05:18;;;;;;;28.73;16.80;;;8.70;82.10;;;;;;5066262;28;20045;-71
2021/03/02 09:08:06;;;;;;;31.17;16.60;;;8.70;80.60;;;;;;5065862;28;20051;-68
2021/03/02 09:10:34;;;;;;;25.37;15.90;;;8.80;80.70;;;;;;5050030;28;20021;-65
2021/03/02 09:13:00;;;;;;;27.23;16.25;;;9.20;81.40;;;;;;5052352;28;20033;-63
2021/03/02 09:15:36;;;;;;;28.13;16.50;;;9.80;80.00;;;;;;5066336;28;20064;-63
2021/03/02 09:18:16;;;;;;;24.90;15.50;;;10.10;78.90;;;;;;5084260;28;20036;-65
2021/03/02 09:20:54;;;;;;;27.42;16.60;;;10.30;76.10;;;;;;5072130;28;20029;-64
2021/03/02 09:23:22;;;;;;;26.20;16.52;;;10.30;75.90;;;;;;5047489;28;20033;-64
2021/03/02 09:25:51;;;;;;;25.73;16.25;;;10.50;75.60;;;;;;5068211;28;20037;-64
2021/03/02 09:28:20;;;;;;;25.33;16.42;;;10.90;77.40;;;;;;5052415;28;20560;-64
2021/03/02 09:30:46;;;;;;;24.73;15.00;;;11.70;77.00;;;;;;5044061;28;20075;-64
2021/03/02 09:33:13;;;;;;;22.10;15.13;;;13.70;78.60;;;;;;5069639;28;20028;-65
2021/03/02 09:35:41;;;;;;;22.15;15.45;;;16.30;77.80;;;;;;5047505;28;20117;-65
2021/03/02 09:38:07;;;;;;;20.92;14.55;;;18.70;73.40;;;;;;5050037;28;20061;-65
2021/03/02 09:40:42;;;;;;;20.85;15.52;;;20.50;69.00;;;;;;5051399;28;20549;-65
2021/03/02 09:43:09;;;;;;;22.27;16.05;;;22.10;65.30;;;;;;5052518;28;20066;-67
2021/03/02 09:45:35;;;;;;;20.48;15.38;;;23.10;58.00;;;;;;5051590;28;20401;-67
2021/03/02 09:48:08;;;;;;;20.02;15.10;;;23.60;53.50;;;;;;5067647;28;20052;-68
2021/03/02 09:50:39;;;;;;;22.55;16.67;;;24.00;52.70;;;;;;5026907;28;20044;-67
2021/03/02 09:53:15;;;;;;;21.75;15.93;;;24.70;50.40;;;;;;5061942;28;20512;-67
2021/03/02 09:55:42;;;;;;;18.98;14.50;;;25.40;47.60;;;;;;5051331;28;20056;-66
2021/03/02 09:58:12;;;;;;;21.70;15.63;;;25.60;45.90;;;;;;5069650;28;20131;-67
2021/03/02 10:00:48;;;;;;;21.02;15.20;;;25.80;45.40;;;;;;5061588;28;20032;-67
2021/03/02 10:03:15;;;;;;;18.52;14.35;;;26.50;44.50;;;;;;5053471;28;20445;-67
2021/03/02 10:05:54;;;;;;;18.98;14.70;;;27.40;43.30;;;;;;5069951;28;20086;-67
2021/03/02 10:08:21;;;;;;;20.83;15.80;;;27.90;41.50;;;;;;5076013;28;20057;-67
2021/03/02 10:10:47;;;;;;;22.02;17.20;;;27.70;39.20;;;;;;5067805;28;20036;-65
2021/03/02 10:13:22;;;;;;;22.13;15.82;;;26.50;37.80;;;;;;5068294;28;20029;-67
2021/03/02 10:15:48;;;;;;;21.48;16.25;;;25.80;38.40;;;;;;5076218;28;20058;-67
2021/03/02 10:18:24;;;;;;;21.77;15.93;;;25.40;38.30;;;;;;5068606;28;20757;-67
2021/03/02 10:21:08;;;;;;;21.77;16.27;;;24.90;37.20;;;;;;5067996;28;20102;-66
2021/03/02 10:23:40;;;;;;;21.95;16.80;;;24.00;36.50;;;;;;5069944;28;20049;-66
2021/03/02 10:26:06;;;;;;;23.42;15.45;;;23.30;36.50;;;;;;5068631;28;20143;-66
2021/03/02 10:28:33;;;;;;;22.95;16.42;;;22.90;37.30;;;;;;5071397;28;20215;-66
2021/03/02 10:30:59;;;;;;;25.10;16.00;;;22.90;37.90;;;;;;5071637;28;20448;-66
2021/03/02 10:33:26;;;;;;;22.45;16.08;;;23.10;37.40;;;;;;5068226;28;20025;-66
2021/03/02 10:35:52;;;;;;;23.98;17.10;;;22.90;36.40;;;;;;5054193;28;20442;-66
2021/03/02 10:38:18;;;;;;;22.92;16.13;;;22.40;36.50;;;;;;5055606;28;20040;-65
2021/03/02 10:40:44;;;;;;;23.73;17.42;;;21.80;37.30;;;;;;5073377;28;20071;-65
2021/03/02 10:43:10;;;;;;;23.90;17.25;;;21.10;37.40;;;;;;5076109;28;20063;-65
2021/03/02 10:45:36;;;;;;;25.63;17.95;;;20.30;37.50;;;;;;5081987;28;20055;-65
2021/03/02 10:48:03;;;;;;;23.95;16.30;;;19.40;38.50;;;;;;5076047;28;20040;-65
2021/03/02 10:50:30;;;;;;;25.23;16.75;;;18.80;39.90;;;;;;5057426;28;20040;-65
2021/03/02 10:52:56;;;;;;;23.05;15.40;;;18.60;41.40;;;;;;5072795;28;20047;-65
2021/03/02 10:55:23;;;;;;;25.30;16.52;;;18.70;41.30;;;;;;5080331;28;20056;-65
2021/03/02 10:57:49;;;;;;;23.58;15.25;;;18.80;41.70;;;;;;5075748;28;20039;-65
2021/03/02 11:00:17;;;;;;;22.63;14.52;;;18.80;41.40;;;;;;5075359;28;20033;-70
2021/03/02 11:02:43;;;;;;;19.60;13.25;;;18.50;41.70;;;;;;5079580;28;20370;-65
2021/03/02 11:05:10;;;;;;;21.27;14.43;;;18.30;42.30;;;;;;5072161;28;20071;-70
2021/03/02 11:07:36;;;;;;;23.10;15.10;;;18.20;42.80;;;;;;5073146;28;20138;-70
2021/03/02 11:10:03;;;;;;;21.83;14.00;;;18.50;42.90;;;;;;5076789;28;20127;-72
2021/03/02 11:12:28;;;;;;;22.73;14.52;;;18.90;41.90;;;;;;5076779;28;25457;-72
2021/03/02 11:14:54;;;;;;;21.90;14.30;;;19.00;42.00;;;;;;5082515;28;20039;-66
2021/03/02 11:17:20;;;;;;;22.27;14.43;;;19.00;42.00;;;;;;5065580;28;20039;-66
2021/03/02 11:19:48;;;;;;;22.05;14.55;;;19.00;42.30;;;;;;5070910;28;20029;-65
2021/03/02 11:22:13;;;;;;;23.13;14.75;;;19.10;42.20;;;;;;5065007;28;20037;-64
2021/03/02 11:24:39;;;;;;;20.95;15.48;;;19.10;41.40;;;;;;5062153;28;20035;-65
2021/03/02 11:27:05;;;;;;;21.45;14.77;;;19.10;41.60;;;;;;5077822;28;20047;-65
2021/03/02 11:29:30;;;;;;;23.33;14.77;;;19.10;42.00;;;;;;5067926;28;20044;-66
2021/03/02 11:31:56;;;;;;;21.80;14.45;;;19.20;42.40;;;;;;5072123;28;20546;-65
2021/03/02 11:34:22;;;;;;;23.25;14.52;;;19.70;43.20;;;;;;5075209;28;20048;-66
2021/03/02 11:36:47;;;;;;;24.80;16.35;;;20.20;42.90;;;;;;5085873;28;20056;-66
2021/03/02 11:39:15;;;;;;;20.95;14.85;;;20.40;41.70;;;;;;5077738;28;20119;-65
2021/03/02 11:41:40;;;;;;;22.15;15.65;;;20.00;40.00;;;;;;5074921;28;20533;-65
2021/03/02 11:44:08;;;;;;;21.90;15.15;;;19.60;39.10;;;;;;5075125;28;20040;-65
2021/03/02 11:46:34;;;;;;;26.27;16.42;;;18.90;39.60;;;;;;5078491;28;20403;-65
2021/03/02 11:48:59;;;;;;;22.92;16.08;;;18.10;40.30;;;;;;5075926;28;20094;-65
2021/03/02 11:51:25;;;;;;;24.73;17.08;;;17.40;42.00;;;;;;5049144;28;20436;-63
2021/03/02 11:53:51;;;;;;;26.33;15.82;;;16.90;43.30;;;;;;5036904;28;20044;-63
2021/03/02 11:56:16;;;;;;;26.23;16.85;;;16.50;43.90;;;;;;5070844;28;20036;-63
2021/03/02 11:58:42;;;;;;;24.77;16.17;;;16.10;44.80;;;;;;5054205;28;20040;-65
2021/03/02 12:01:07;;;;;;;26.35;16.92;;;15.90;46.00;;;;;;5035786;28;20044;-66
2021/03/02 12:03:33;;;;;;;26.70;16.42;;;16.10;46.60;;;;;;5072975;28;20056;-66
2021/03/02 12:05:59;;;;;;;26.92;16.67;;;16.80;48.00;;;;;;5071524;28;20032;-64
2021/03/02 12:08:25;;;;;;;25.25;16.88;;;17.70;48.00;;;;;;5066809;28;20045;-66
2021/03/02 12:10:51;;;;;;;23.45;16.63;;;18.80;48.00;;;;;;5063089;28;20036;-66
2021/03/02 12:13:18;;;;;;;23.75;16.92;;;20.30;47.00;;;;;;5035545;28;20036;-66
2021/03/02 12:15:44;;;;;;;24.50;15.30;;;21.90;45.00;;;;;;5074981;28;20037;-65
2021/03/02 12:18:10;;;;;;;23.88;14.73;;;23.20;42.60;;;;;;5071497;28;20039;-66
2021/03/02 12:20:36;;;;;;;22.83;13.48;;;24.10;40.20;;;;;;5052318;28;20183;-66
2021/03/02 12:23:02;;;;;;;21.65;14.00;;;24.70;38.10;;;;;;5053279;28;20540;-71
2021/03/02 12:25:28;;;;;;;21.15;14.07;;;25.20;37.20;;;;;;5062589;28;20120;-64
2021/03/02 12:27:54;;;;;;;21.02;13.48;;;25.60;37.00;;;;;;5044532;28;20574;-67
2021/03/02 12:30:20;;;;;;;21.35;13.13;;;26.10;36.00;;;;;;5067548;28;20349;-67
2021/03/02 12:32:46;;;;;;;21.25;13.32;;;26.20;33.50;;;;;;5066491;28;20040;-71
2021/03/02 12:35:12;;;;;;;21.02;13.18;;;25.70;32.60;;;;;;5062322;28;20033;-71
2021/03/02 12:37:38;;;;;;;20.88;11.43;;;25.20;32.60;;;;;;5064887;28;20032;-71
2021/03/02 12:40:06;;;;;;;14.98;9.20;;;24.90;33.20;;;;;;5067360;28;20558;-72